Iliamna, AK

7:06 PM AKST on December 17, 2014 (GMT -0900)
HADS KOKTULI R NR ILIAMNA AK USGS | Change Station
CLOSE
Current Station
Personal Weather Station
Location: Iliamna, AK
Elevation: 851 ft
Nearby Weather Stations

Elev 851 ft 59.79 °N, 155.52 °W | Updated 1 hour ago

Overcast
Overcast
24 °F
Feels Like 24 °F
N
Wind Variable Wind from North
Gusts 0.0 mph

Today
High -- | Low -- °F
--% Chance of Precip.
Yesterday
High -- | Low -- °F
Precip. -- in
10:16 AM 4:17 PM
Waning Crescent, 17% visible
Pressure 29.50 in
Visibility 10.0 miles
Clouds Scattered Clouds 8500 ft
Overcast 13000 ft
Windchill 24 °F
Dew Point Not available.
Humidity Not available.
Rainfall 0.00 in
Snow Depth Not available.
UV 0 out of 12
Pollen Not available.
Air Quality Not available.
Flu Activity Not available.
METAR PAIL 180353Z 36012KT 10SM SCT085 OVC130 M03/M07 A2949 RMK AO2 SLP990 T10331067

More Conditions Fewer Conditions

Pressure 29.50 in
Visibility 10.0 miles
Clouds Scattered Clouds 8500 ft
Overcast 13000 ft
Windchill 24 °F
Dew Point Not available.
Humidity Not available.
Rainfall 0.00 in
Snow Depth Not available.
UV 0 out of 12
Pollen Not available.
Air Quality Not available.
Flu Activity Not available.
METAR PAIL 180353Z 36012KT 10SM SCT085 OVC130 M03/M07 A2949 RMK AO2 SLP990 T10331067

More Conditions Fewer Conditions

10-Day Weather Forecast

Almanac

Astronomy

Dec. 17, 2014 Rise Set
Actual Time
Civil Twilight
Nautical Twilight
Astronomical Twilight
Moon
Length of Visible Light
Length of Day
Tomorrow will be .
, % of the Moon is Illuminated

Today's Extremes

State Highs State Lows

Community

WunderPhotos

Upload Photos

1,778,879 photos uploaded!

WunderBlogs® & News

Nearby

Air Quality

  Air Quality AQ Index Pollutant
Not available.

Snow Depth

Station Depth Elevation

Earthquake Activity

City Distance Mag. Time & Date
Minimum magnitude displayed is 2.5.

Coastal Water Temperatures

Place Temperature

Nearby Weather Stations